Tampico, Illinois
Current Conditions -  °F | °C
As of 6:55 PM on Saturday 25 Oct 2014 (Local Time) from KSQI Reporting Station
Clear Clear  
Wind Chill: 57°   Ceiling: Unl
Heat Index: 57°   Visibility: 10mi
Dew Point: 34°   Wind: 9mph
Humidity: 41%   Direction: 300°WNW
Pressure: 29.99"   Gusts: NA
Location:  41.63°N, 89.79°W
Report Text: KSQI 252355Z AUTO 30008KT 10SM CLR 14/01 A2999 RMK AO1 10230 20140 52003
Loading
Personal Weather Stations






























Interactive Weather Map
Tropical Storm Tracking
New forecast layout! Learn more

10-Day Weather Forecast

Advertisements
Track Severe Weather on mobile